sensor_id;sensor_type;location;lat;lon;timestamp;P1;durP1;ratioP1;P2;durP2;ratioP2
4885;SDS011;2457;51.788;6.136;2023-06-22T00:00:49;10.67;;;5.30;;
4885;SDS011;2457;51.788;6.136;2023-06-22T00:03:17;7.83;;;4.20;;
4885;SDS011;2457;51.788;6.136;2023-06-22T00:05:45;6.83;;;3.67;;
4885;SDS011;2457;51.788;6.136;2023-06-22T00:08:13;9.80;;;4.60;;
4885;SDS011;2457;51.788;6.136;2023-06-22T00:10:40;11.33;;;4.70;;
4885;SDS011;2457;51.788;6.136;2023-06-22T00:13:08;8.97;;;4.57;;
4885;SDS011;2457;51.788;6.136;2023-06-22T00:15:36;9.40;;;4.73;;
4885;SDS011;2457;51.788;6.136;2023-06-22T00:18:05;11.57;;;5.23;;
4885;SDS011;2457;51.788;6.136;2023-06-22T00:20:33;7.80;;;4.70;;
4885;SDS011;2457;51.788;6.136;2023-06-22T00:23:03;7.33;;;3.70;;
4885;SDS011;2457;51.788;6.136;2023-06-22T00:25:36;7.50;;;3.90;;
4885;SDS011;2457;51.788;6.136;2023-06-22T00:28:04;6.33;;;3.80;;
4885;SDS011;2457;51.788;6.136;2023-06-22T00:30:32;15.33;;;5.07;;
4885;SDS011;2457;51.788;6.136;2023-06-22T00:32:59;7.83;;;4.10;;
4885;SDS011;2457;51.788;6.136;2023-06-22T00:35:27;11.70;;;4.40;;
4885;SDS011;2457;51.788;6.136;2023-06-22T00:37:56;7.67;;;4.20;;
4885;SDS011;2457;51.788;6.136;2023-06-22T00:40:30;9.10;;;4.33;;
4885;SDS011;2457;51.788;6.136;2023-06-22T00:42:54;10.87;;;4.70;;
4885;SDS011;2457;51.788;6.136;2023-06-22T00:45:26;8.43;;;4.33;;
4885;SDS011;2457;51.788;6.136;2023-06-22T00:47:51;8.90;;;5.00;;
4885;SDS011;2457;51.788;6.136;2023-06-22T00:50:22;9.80;;;4.70;;
4885;SDS011;2457;51.788;6.136;2023-06-22T00:52:53;8.20;;;4.20;;
4885;SDS011;2457;51.788;6.136;2023-06-22T00:55:22;12.33;;;4.53;;
4885;SDS011;2457;51.788;6.136;2023-06-22T00:57:50;10.48;;;5.00;;
4885;SDS011;2457;51.788;6.136;2023-06-22T01:00:19;7.60;;;3.90;;
4885;SDS011;2457;51.788;6.136;2023-06-22T01:02:46;8.73;;;5.00;;
4885;SDS011;2457;51.788;6.136;2023-06-22T01:05:16;7.10;;;3.80;;
4885;SDS011;2457;51.788;6.136;2023-06-22T01:07:48;8.00;;;4.60;;
4885;SDS011;2457;51.788;6.136;2023-06-22T01:12:57;7.53;;;4.47;;
4885;SDS011;2457;51.788;6.136;2023-06-22T01:15:28;8.07;;;4.60;;
4885;SDS011;2457;51.788;6.136;2023-06-22T01:17:50;7.33;;;4.13;;
4885;SDS011;2457;51.788;6.136;2023-06-22T01:20:19;9.13;;;5.27;;
4885;SDS011;2457;51.788;6.136;2023-06-22T01:26:02;8.23;;;4.43;;
4885;SDS011;2457;51.788;6.136;2023-06-22T01:28:05;10.27;;;4.77;;
4885;SDS011;2457;51.788;6.136;2023-06-22T01:30:31;10.70;;;5.30;;
4885;SDS011;2457;51.788;6.136;2023-06-22T01:33:00;9.40;;;4.73;;
4885;SDS011;2457;51.788;6.136;2023-06-22T01:35:28;8.50;;;4.53;;
4885;SDS011;2457;51.788;6.136;2023-06-22T01:37:56;9.10;;;4.40;;
4885;SDS011;2457;51.788;6.136;2023-06-22T01:40:23;8.70;;;4.07;;
4885;SDS011;2457;51.788;6.136;2023-06-22T01:42:51;18.73;;;4.33;;
4885;SDS011;2457;51.788;6.136;2023-06-22T01:45:19;8.43;;;4.43;;
4885;SDS011;2457;51.788;6.136;2023-06-22T01:47:46;8.03;;;4.57;;
4885;SDS011;2457;51.788;6.136;2023-06-22T01:50:14;9.30;;;4.10;;
4885;SDS011;2457;51.788;6.136;2023-06-22T01:52:41;9.27;;;4.80;;
4885;SDS011;2457;51.788;6.136;2023-06-22T01:55:09;11.70;;;5.00;;
4885;SDS011;2457;51.788;6.136;2023-06-22T01:57:36;11.60;;;4.67;;
4885;SDS011;2457;51.788;6.136;2023-06-22T02:00:07;8.30;;;4.30;;
4885;SDS011;2457;51.788;6.136;2023-06-22T02:02:35;10.93;;;4.47;;
4885;SDS011;2457;51.788;6.136;2023-06-22T02:05:06;7.70;;;3.93;;
4885;SDS011;2457;51.788;6.136;2023-06-22T02:07:34;11.30;;;4.73;;
4885;SDS011;2457;51.788;6.136;2023-06-22T02:10:02;10.93;;;4.07;;
4885;SDS011;2457;51.788;6.136;2023-06-22T02:12:30;7.93;;;4.53;;
4885;SDS011;2457;51.788;6.136;2023-06-22T02:14:58;8.13;;;4.43;;
4885;SDS011;2457;51.788;6.136;2023-06-22T02:17:27;11.27;;;5.10;;
4885;SDS011;2457;51.788;6.136;2023-06-22T02:19:54;9.53;;;5.20;;
4885;SDS011;2457;51.788;6.136;2023-06-22T02:22:21;9.07;;;4.97;;
4885;SDS011;2457;51.788;6.136;2023-06-22T02:24:49;13.47;;;4.70;;
4885;SDS011;2457;51.788;6.136;2023-06-22T02:27:17;8.57;;;4.37;;
4885;SDS011;2457;51.788;6.136;2023-06-22T02:29:44;10.63;;;4.97;;
4885;SDS011;2457;51.788;6.136;2023-06-22T02:32:11;9.90;;;4.23;;
4885;SDS011;2457;51.788;6.136;2023-06-22T02:34:39;8.60;;;4.27;;
4885;SDS011;2457;51.788;6.136;2023-06-22T02:37:06;7.37;;;4.23;;
4885;SDS011;2457;51.788;6.136;2023-06-22T02:39:33;9.53;;;3.93;;
4885;SDS011;2457;51.788;6.136;2023-06-22T02:42:00;8.50;;;4.43;;
4885;SDS011;2457;51.788;6.136;2023-06-22T02:44:28;9.60;;;4.43;;
4885;SDS011;2457;51.788;6.136;2023-06-22T02:46:55;6.70;;;3.73;;
4885;SDS011;2457;51.788;6.136;2023-06-22T02:49:23;7.70;;;4.03;;
4885;SDS011;2457;51.788;6.136;2023-06-22T02:51:50;7.27;;;3.80;;
4885;SDS011;2457;51.788;6.136;2023-06-22T02:54:17;7.17;;;4.20;;
4885;SDS011;2457;51.788;6.136;2023-06-22T02:56:45;10.00;;;4.40;;
4885;SDS011;2457;51.788;6.136;2023-06-22T02:59:12;7.70;;;4.37;;
4885;SDS011;2457;51.788;6.136;2023-06-22T03:01:39;6.87;;;3.73;;
4885;SDS011;2457;51.788;6.136;2023-06-22T03:04:07;7.40;;;4.30;;
4885;SDS011;2457;51.788;6.136;2023-06-22T03:06:35;8.53;;;4.07;;
4885;SDS011;2457;51.788;6.136;2023-06-22T03:09:03;12.73;;;4.53;;
4885;SDS011;2457;51.788;6.136;2023-06-22T03:11:31;9.83;;;5.03;;
4885;SDS011;2457;51.788;6.136;2023-06-22T03:13:58;8.60;;;4.40;;
4885;SDS011;2457;51.788;6.136;2023-06-22T03:16:26;12.33;;;5.43;;
4885;SDS011;2457;51.788;6.136;2023-06-22T03:18:53;15.20;;;4.83;;
4885;SDS011;2457;51.788;6.136;2023-06-22T03:21:22;7.33;;;4.57;;
4885;SDS011;2457;51.788;6.136;2023-06-22T03:23:49;10.20;;;5.27;;
4885;SDS011;2457;51.788;6.136;2023-06-22T03:26:17;11.77;;;5.30;;
4885;SDS011;2457;51.788;6.136;2023-06-22T03:28:44;8.70;;;5.23;;
4885;SDS011;2457;51.788;6.136;2023-06-22T03:31:12;12.30;;;5.07;;
4885;SDS011;2457;51.788;6.136;2023-06-22T03:33:39;10.17;;;5.87;;
4885;SDS011;2457;51.788;6.136;2023-06-22T03:36:06;10.43;;;6.00;;
4885;SDS011;2457;51.788;6.136;2023-06-22T03:38:34;10.70;;;6.20;;
4885;SDS011;2457;51.788;6.136;2023-06-22T03:41:02;9.83;;;5.17;;
4885;SDS011;2457;51.788;6.136;2023-06-22T03:43:29;10.40;;;5.80;;
4885;SDS011;2457;51.788;6.136;2023-06-22T03:45:56;8.53;;;5.90;;
4885;SDS011;2457;51.788;6.136;2023-06-22T03:48:24;10.83;;;5.93;;
4885;SDS011;2457;51.788;6.136;2023-06-22T03:50:51;12.83;;;5.83;;
4885;SDS011;2457;51.788;6.136;2023-06-22T03:53:18;13.57;;;5.70;;
4885;SDS011;2457;51.788;6.136;2023-06-22T03:55:49;11.63;;;5.80;;
4885;SDS011;2457;51.788;6.136;2023-06-22T03:58:17;13.03;;;6.77;;
4885;SDS011;2457;51.788;6.136;2023-06-22T04:00:50;12.60;;;7.10;;
4885;SDS011;2457;51.788;6.136;2023-06-22T04:03:16;12.53;;;6.60;;
4885;SDS011;2457;51.788;6.136;2023-06-22T04:05:47;11.47;;;7.07;;
4885;SDS011;2457;51.788;6.136;2023-06-22T04:08:14;14.10;;;7.20;;
4885;SDS011;2457;51.788;6.136;2023-06-22T04:10:42;12.40;;;6.23;;
4885;SDS011;2457;51.788;6.136;2023-06-22T04:13:09;11.23;;;6.50;;
4885;SDS011;2457;51.788;6.136;2023-06-22T04:15:37;11.70;;;6.50;;
4885;SDS011;2457;51.788;6.136;2023-06-22T04:18:04;12.00;;;7.03;;
4885;SDS011;2457;51.788;6.136;2023-06-22T04:20:31;15.63;;;6.50;;
4885;SDS011;2457;51.788;6.136;2023-06-22T04:22:59;11.47;;;6.43;;
4885;SDS011;2457;51.788;6.136;2023-06-22T04:25:26;12.83;;;7.27;;
4885;SDS011;2457;51.788;6.136;2023-06-22T04:27:54;19.20;;;7.20;;
4885;SDS011;2457;51.788;6.136;2023-06-22T04:30:21;12.63;;;7.50;;
4885;SDS011;2457;51.788;6.136;2023-06-22T04:32:48;12.27;;;7.53;;
4885;SDS011;2457;51.788;6.136;2023-06-22T04:35:17;13.23;;;7.80;;
4885;SDS011;2457;51.788;6.136;2023-06-22T04:37:44;12.50;;;7.07;;
4885;SDS011;2457;51.788;6.136;2023-06-22T04:40:13;13.33;;;7.93;;
4885;SDS011;2457;51.788;6.136;2023-06-22T04:42:41;10.60;;;7.23;;
4885;SDS011;2457;51.788;6.136;2023-06-22T04:45:10;14.00;;;7.37;;
4885;SDS011;2457;51.788;6.136;2023-06-22T04:47:37;12.30;;;7.53;;
4885;SDS011;2457;51.788;6.136;2023-06-22T04:50:05;14.57;;;7.90;;
4885;SDS011;2457;51.788;6.136;2023-06-22T04:52:33;13.57;;;7.67;;
4885;SDS011;2457;51.788;6.136;2023-06-22T04:55:01;14.63;;;7.20;;
4885;SDS011;2457;51.788;6.136;2023-06-22T04:57:28;13.30;;;7.40;;
4885;SDS011;2457;51.788;6.136;2023-06-22T04:59:57;15.30;;;8.37;;
4885;SDS011;2457;51.788;6.136;2023-06-22T05:02:26;14.87;;;8.43;;
4885;SDS011;2457;51.788;6.136;2023-06-22T05:04:55;11.50;;;7.47;;
4885;SDS011;2457;51.788;6.136;2023-06-22T05:07:24;12.03;;;8.00;;
4885;SDS011;2457;51.788;6.136;2023-06-22T05:09:51;17.87;;;10.30;;
4885;SDS011;2457;51.788;6.136;2023-06-22T05:12:19;15.03;;;9.30;;
4885;SDS011;2457;51.788;6.136;2023-06-22T05:14:46;13.03;;;7.70;;
4885;SDS011;2457;51.788;6.136;2023-06-22T05:17:13;16.40;;;10.00;;
4885;SDS011;2457;51.788;6.136;2023-06-22T05:19:40;22.27;;;10.30;;
4885;SDS011;2457;51.788;6.136;2023-06-22T05:22:10;23.50;;;10.53;;
4885;SDS011;2457;51.788;6.136;2023-06-22T05:24:38;15.27;;;9.43;;
4885;SDS011;2457;51.788;6.136;2023-06-22T05:27:06;16.50;;;9.60;;
4885;SDS011;2457;51.788;6.136;2023-06-22T05:29:33;17.43;;;9.80;;
4885;SDS011;2457;51.788;6.136;2023-06-22T05:32:01;18.00;;;10.60;;
4885;SDS011;2457;51.788;6.136;2023-06-22T05:34:28;18.03;;;11.10;;
4885;SDS011;2457;51.788;6.136;2023-06-22T05:36:56;15.10;;;10.10;;
4885;SDS011;2457;51.788;6.136;2023-06-22T05:39:25;16.77;;;10.00;;
4885;SDS011;2457;51.788;6.136;2023-06-22T05:41:52;21.77;;;11.10;;
4885;SDS011;2457;51.788;6.136;2023-06-22T05:44:19;14.90;;;10.03;;
4885;SDS011;2457;51.788;6.136;2023-06-22T05:46:47;18.00;;;10.47;;
4885;SDS011;2457;51.788;6.136;2023-06-22T05:49:14;17.30;;;11.23;;
4885;SDS011;2457;51.788;6.136;2023-06-22T05:51:42;18.43;;;9.97;;
4885;SDS011;2457;51.788;6.136;2023-06-22T05:54:09;17.07;;;10.23;;
4885;SDS011;2457;51.788;6.136;2023-06-22T05:56:38;19.00;;;11.40;;
4885;SDS011;2457;51.788;6.136;2023-06-22T05:59:06;20.37;;;11.30;;
4885;SDS011;2457;51.788;6.136;2023-06-22T06:01:33;17.97;;;10.10;;
4885;SDS011;2457;51.788;6.136;2023-06-22T06:04:02;18.47;;;10.67;;
4885;SDS011;2457;51.788;6.136;2023-06-22T06:06:30;19.90;;;9.63;;
4885;SDS011;2457;51.788;6.136;2023-06-22T06:08:57;18.13;;;10.00;;
4885;SDS011;2457;51.788;6.136;2023-06-22T06:11:25;18.67;;;9.83;;
4885;SDS011;2457;51.788;6.136;2023-06-22T06:13:52;21.60;;;11.50;;
4885;SDS011;2457;51.788;6.136;2023-06-22T06:16:20;16.77;;;10.57;;
4885;SDS011;2457;51.788;6.136;2023-06-22T06:18:47;17.47;;;9.90;;
4885;SDS011;2457;51.788;6.136;2023-06-22T06:21:16;16.50;;;9.47;;
4885;SDS011;2457;51.788;6.136;2023-06-22T06:23:43;18.90;;;11.10;;
4885;SDS011;2457;51.788;6.136;2023-06-22T06:26:11;17.33;;;11.20;;
4885;SDS011;2457;51.788;6.136;2023-06-22T06:28:38;20.80;;;10.83;;
4885;SDS011;2457;51.788;6.136;2023-06-22T06:31:07;16.83;;;10.27;;
4885;SDS011;2457;51.788;6.136;2023-06-22T06:33:35;15.87;;;9.90;;
4885;SDS011;2457;51.788;6.136;2023-06-22T06:36:03;22.37;;;11.73;;
4885;SDS011;2457;51.788;6.136;2023-06-22T06:38:30;15.90;;;9.67;;
4885;SDS011;2457;51.788;6.136;2023-06-22T06:40:58;22.03;;;11.40;;
4885;SDS011;2457;51.788;6.136;2023-06-22T06:43:25;17.37;;;10.57;;
4885;SDS011;2457;51.788;6.136;2023-06-22T06:45:53;15.67;;;9.70;;
4885;SDS011;2457;51.788;6.136;2023-06-22T06:48:20;16.13;;;9.73;;
4885;SDS011;2457;51.788;6.136;2023-06-22T06:50:47;19.43;;;10.90;;
4885;SDS011;2457;51.788;6.136;2023-06-22T06:53:14;18.33;;;10.20;;
4885;SDS011;2457;51.788;6.136;2023-06-22T06:55:42;15.53;;;10.37;;
4885;SDS011;2457;51.788;6.136;2023-06-22T06:58:11;17.53;;;10.33;;
4885;SDS011;2457;51.788;6.136;2023-06-22T07:00:39;15.73;;;9.90;;
4885;SDS011;2457;51.788;6.136;2023-06-22T07:03:06;16.70;;;10.23;;
4885;SDS011;2457;51.788;6.136;2023-06-22T07:05:34;18.10;;;10.70;;
4885;SDS011;2457;51.788;6.136;2023-06-22T07:08:01;15.63;;;9.60;;
4885;SDS011;2457;51.788;6.136;2023-06-22T07:10:28;25.30;;;9.83;;
4885;SDS011;2457;51.788;6.136;2023-06-22T07:12:56;16.90;;;10.23;;
4885;SDS011;2457;51.788;6.136;2023-06-22T07:15:23;20.53;;;10.60;;
4885;SDS011;2457;51.788;6.136;2023-06-22T07:17:50;16.60;;;10.60;;
4885;SDS011;2457;51.788;6.136;2023-06-22T07:20:17;17.73;;;10.60;;
4885;SDS011;2457;51.788;6.136;2023-06-22T07:22:46;20.53;;;11.57;;
4885;SDS011;2457;51.788;6.136;2023-06-22T07:25:13;13.93;;;8.93;;
4885;SDS011;2457;51.788;6.136;2023-06-22T07:27:56;17.87;;;11.03;;
4885;SDS011;2457;51.788;6.136;2023-06-22T07:30:15;16.37;;;10.20;;
4885;SDS011;2457;51.788;6.136;2023-06-22T07:32:42;18.57;;;11.00;;
4885;SDS011;2457;51.788;6.136;2023-06-22T07:35:09;14.40;;;10.20;;
4885;SDS011;2457;51.788;6.136;2023-06-22T07:37:37;14.97;;;10.37;;
4885;SDS011;2457;51.788;6.136;2023-06-22T07:40:04;20.33;;;10.50;;
4885;SDS011;2457;51.788;6.136;2023-06-22T07:42:32;16.27;;;10.40;;
4885;SDS011;2457;51.788;6.136;2023-06-22T07:45:00;16.53;;;9.70;;
4885;SDS011;2457;51.788;6.136;2023-06-22T07:47:28;16.63;;;11.30;;
4885;SDS011;2457;51.788;6.136;2023-06-22T07:49:57;16.37;;;9.97;;
4885;SDS011;2457;51.788;6.136;2023-06-22T07:52:27;22.23;;;10.80;;
4885;SDS011;2457;51.788;6.136;2023-06-22T07:54:54;17.07;;;11.57;;
4885;SDS011;2457;51.788;6.136;2023-06-22T07:57:21;20.73;;;10.43;;
4885;SDS011;2457;51.788;6.136;2023-06-22T07:59:49;18.47;;;10.83;;
4885;SDS011;2457;51.788;6.136;2023-06-22T08:02:16;15.97;;;10.63;;
4885;SDS011;2457;51.788;6.136;2023-06-22T08:04:43;16.50;;;10.90;;
4885;SDS011;2457;51.788;6.136;2023-06-22T08:07:12;20.03;;;11.20;;
4885;SDS011;2457;51.788;6.136;2023-06-22T08:09:39;17.27;;;10.27;;
4885;SDS011;2457;51.788;6.136;2023-06-22T08:12:08;17.60;;;10.97;;
4885;SDS011;2457;51.788;6.136;2023-06-22T08:14:37;17.27;;;11.07;;
4885;SDS011;2457;51.788;6.136;2023-06-22T08:17:04;19.93;;;11.63;;
4885;SDS011;2457;51.788;6.136;2023-06-22T08:19:31;16.27;;;11.20;;
4885;SDS011;2457;51.788;6.136;2023-06-22T08:21:59;20.73;;;10.23;;
4885;SDS011;2457;51.788;6.136;2023-06-22T08:24:26;18.13;;;11.00;;
4885;SDS011;2457;51.788;6.136;2023-06-22T08:26:55;18.40;;;11.33;;
4885;SDS011;2457;51.788;6.136;2023-06-22T08:29:22;17.10;;;10.93;;
4885;SDS011;2457;51.788;6.136;2023-06-22T08:31:50;17.10;;;11.30;;
4885;SDS011;2457;51.788;6.136;2023-06-22T08:34:17;18.87;;;11.30;;
4885;SDS011;2457;51.788;6.136;2023-06-22T08:36:46;18.97;;;11.03;;
4885;SDS011;2457;51.788;6.136;2023-06-22T08:39:15;16.00;;;10.67;;
4885;SDS011;2457;51.788;6.136;2023-06-22T08:41:42;18.37;;;10.90;;
4885;SDS011;2457;51.788;6.136;2023-06-22T08:44:09;17.60;;;10.53;;
4885;SDS011;2457;51.788;6.136;2023-06-22T08:46:37;18.30;;;10.80;;
4885;SDS011;2457;51.788;6.136;2023-06-22T08:49:05;19.83;;;12.07;;
4885;SDS011;2457;51.788;6.136;2023-06-22T08:51:32;18.23;;;10.70;;
4885;SDS011;2457;51.788;6.136;2023-06-22T08:53:59;23.23;;;10.70;;
4885;SDS011;2457;51.788;6.136;2023-06-22T08:56:26;19.37;;;11.73;;
4885;SDS011;2457;51.788;6.136;2023-06-22T08:58:54;17.90;;;11.60;;
4885;SDS011;2457;51.788;6.136;2023-06-22T09:01:21;16.17;;;10.13;;
4885;SDS011;2457;51.788;6.136;2023-06-22T09:03:48;18.30;;;10.30;;
4885;SDS011;2457;51.788;6.136;2023-06-22T09:06:17;17.07;;;10.33;;
4885;SDS011;2457;51.788;6.136;2023-06-22T09:08:45;16.37;;;9.90;;
4885;SDS011;2457;51.788;6.136;2023-06-22T09:11:13;18.20;;;9.57;;
4885;SDS011;2457;51.788;6.136;2023-06-22T09:13:40;15.60;;;9.10;;
4885;SDS011;2457;51.788;6.136;2023-06-22T09:16:08;14.10;;;9.03;;
4885;SDS011;2457;51.788;6.136;2023-06-22T09:18:35;18.03;;;8.97;;
4885;SDS011;2457;51.788;6.136;2023-06-22T09:21:02;18.90;;;9.70;;
4885;SDS011;2457;51.788;6.136;2023-06-22T09:23:29;18.23;;;9.40;;
4885;SDS011;2457;51.788;6.136;2023-06-22T09:25:57;15.37;;;8.77;;
4885;SDS011;2457;51.788;6.136;2023-06-22T09:28:24;14.10;;;8.80;;
4885;SDS011;2457;51.788;6.136;2023-06-22T09:30:52;14.23;;;9.10;;
4885;SDS011;2457;51.788;6.136;2023-06-22T09:33:20;11.40;;;6.67;;
4885;SDS011;2457;51.788;6.136;2023-06-22T09:35:48;14.20;;;8.67;;
4885;SDS011;2457;51.788;6.136;2023-06-22T09:38:17;16.10;;;9.53;;
4885;SDS011;2457;51.788;6.136;2023-06-22T09:40:44;12.57;;;8.10;;
4885;SDS011;2457;51.788;6.136;2023-06-22T09:43:11;14.67;;;8.23;;
4885;SDS011;2457;51.788;6.136;2023-06-22T09:45:39;16.40;;;9.00;;
4885;SDS011;2457;51.788;6.136;2023-06-22T09:48:06;13.50;;;8.03;;
4885;SDS011;2457;51.788;6.136;2023-06-22T09:50:33;14.17;;;8.50;;
4885;SDS011;2457;51.788;6.136;2023-06-22T09:53:01;15.83;;;8.20;;
4885;SDS011;2457;51.788;6.136;2023-06-22T09:55:28;16.70;;;8.50;;
4885;SDS011;2457;51.788;6.136;2023-06-22T09:57:55;15.23;;;9.30;;
4885;SDS011;2457;51.788;6.136;2023-06-22T10:00:22;15.97;;;8.70;;
4885;SDS011;2457;51.788;6.136;2023-06-22T10:02:50;13.03;;;7.77;;
4885;SDS011;2457;51.788;6.136;2023-06-22T10:05:17;13.67;;;8.23;;
4885;SDS011;2457;51.788;6.136;2023-06-22T10:07:44;14.50;;;8.77;;
4885;SDS011;2457;51.788;6.136;2023-06-22T10:10:12;15.47;;;8.20;;
4885;SDS011;2457;51.788;6.136;2023-06-22T10:12:44;12.87;;;8.30;;
4885;SDS011;2457;51.788;6.136;2023-06-22T10:15:11;15.10;;;7.80;;
4885;SDS011;2457;51.788;6.136;2023-06-22T10:17:39;15.77;;;8.70;;
4885;SDS011;2457;51.788;6.136;2023-06-22T10:20:06;17.23;;;8.90;;
4885;SDS011;2457;51.788;6.136;2023-06-22T10:22:40;14.03;;;8.10;;
4885;SDS011;2457;51.788;6.136;2023-06-22T10:25:08;21.00;;;9.17;;
4885;SDS011;2457;51.788;6.136;2023-06-22T10:27:35;14.00;;;7.40;;
4885;SDS011;2457;51.788;6.136;2023-06-22T10:30:05;13.80;;;8.53;;
4885;SDS011;2457;51.788;6.136;2023-06-22T10:32:32;13.03;;;8.07;;
4885;SDS011;2457;51.788;6.136;2023-06-22T10:34:59;12.90;;;8.00;;
4885;SDS011;2457;51.788;6.136;2023-06-22T10:37:26;13.03;;;8.63;;
4885;SDS011;2457;51.788;6.136;2023-06-22T10:39:54;13.80;;;7.27;;
4885;SDS011;2457;51.788;6.136;2023-06-22T10:42:21;12.50;;;7.40;;
4885;SDS011;2457;51.788;6.136;2023-06-22T10:44:48;14.40;;;8.00;;
4885;SDS011;2457;51.788;6.136;2023-06-22T10:47:15;15.77;;;8.97;;
4885;SDS011;2457;51.788;6.136;2023-06-22T10:49:43;12.43;;;6.93;;
4885;SDS011;2457;51.788;6.136;2023-06-22T10:52:10;12.17;;;7.27;;
4885;SDS011;2457;51.788;6.136;2023-06-22T10:54:37;15.43;;;7.87;;
4885;SDS011;2457;51.788;6.136;2023-06-22T10:57:05;14.90;;;8.30;;
4885;SDS011;2457;51.788;6.136;2023-06-22T10:59:32;16.40;;;8.40;;
4885;SDS011;2457;51.788;6.136;2023-06-22T11:01:59;9.80;;;6.57;;
4885;SDS011;2457;51.788;6.136;2023-06-22T11:04:27;15.40;;;8.00;;
4885;SDS011;2457;51.788;6.136;2023-06-22T11:06:54;10.97;;;6.03;;
4885;SDS011;2457;51.788;6.136;2023-06-22T11:09:22;9.77;;;5.50;;
4885;SDS011;2457;51.788;6.136;2023-06-22T11:11:50;13.70;;;8.60;;
4885;SDS011;2457;51.788;6.136;2023-06-22T11:14:19;13.30;;;7.17;;
4885;SDS011;2457;51.788;6.136;2023-06-22T11:16:48;12.17;;;7.03;;
4885;SDS011;2457;51.788;6.136;2023-06-22T11:19:15;14.73;;;8.80;;
4885;SDS011;2457;51.788;6.136;2023-06-22T11:21:42;16.13;;;9.77;;
4885;SDS011;2457;51.788;6.136;2023-06-22T11:24:09;12.97;;;8.00;;
4885;SDS011;2457;51.788;6.136;2023-06-22T11:26:37;15.10;;;9.03;;
4885;SDS011;2457;51.788;6.136;2023-06-22T11:29:04;14.60;;;8.90;;
4885;SDS011;2457;51.788;6.136;2023-06-22T11:31:32;14.10;;;9.00;;
4885;SDS011;2457;51.788;6.136;2023-06-22T11:33:59;18.07;;;9.80;;
4885;SDS011;2457;51.788;6.136;2023-06-22T11:36:26;17.67;;;10.00;;
4885;SDS011;2457;51.788;6.136;2023-06-22T11:38:55;11.50;;;7.80;;
4885;SDS011;2457;51.788;6.136;2023-06-22T11:41:22;18.53;;;9.80;;
4885;SDS011;2457;51.788;6.136;2023-06-22T11:43:49;11.47;;;7.27;;
4885;SDS011;2457;51.788;6.136;2023-06-22T11:46:17;16.73;;;8.30;;
4885;SDS011;2457;51.788;6.136;2023-06-22T11:48:44;16.40;;;9.20;;
4885;SDS011;2457;51.788;6.136;2023-06-22T11:51:11;17.67;;;9.17;;
4885;SDS011;2457;51.788;6.136;2023-06-22T11:53:39;14.80;;;8.90;;
4885;SDS011;2457;51.788;6.136;2023-06-22T11:56:06;16.60;;;9.17;;
4885;SDS011;2457;51.788;6.136;2023-06-22T11:58:33;13.27;;;8.20;;
4885;SDS011;2457;51.788;6.136;2023-06-22T12:01:00;15.60;;;9.13;;
4885;SDS011;2457;51.788;6.136;2023-06-22T12:03:28;13.20;;;8.13;;
4885;SDS011;2457;51.788;6.136;2023-06-22T12:05:56;13.50;;;8.50;;
4885;SDS011;2457;51.788;6.136;2023-06-22T12:08:23;18.33;;;9.77;;
4885;SDS011;2457;51.788;6.136;2023-06-22T12:10:51;19.67;;;9.50;;
4885;SDS011;2457;51.788;6.136;2023-06-22T12:13:20;16.93;;;10.30;;
4885;SDS011;2457;51.788;6.136;2023-06-22T12:15:47;14.13;;;9.37;;
4885;SDS011;2457;51.788;6.136;2023-06-22T12:18:14;18.70;;;9.30;;
4885;SDS011;2457;51.788;6.136;2023-06-22T12:20:42;16.20;;;10.73;;
4885;SDS011;2457;51.788;6.136;2023-06-22T12:23:09;15.23;;;10.17;;
4885;SDS011;2457;51.788;6.136;2023-06-22T12:25:36;14.00;;;9.20;;
4885;SDS011;2457;51.788;6.136;2023-06-22T12:28:03;16.63;;;9.90;;
4885;SDS011;2457;51.788;6.136;2023-06-22T12:30:32;21.30;;;10.33;;
4885;SDS011;2457;51.788;6.136;2023-06-22T12:32:59;15.93;;;10.13;;
4885;SDS011;2457;51.788;6.136;2023-06-22T12:35:27;15.67;;;10.10;;
4885;SDS011;2457;51.788;6.136;2023-06-22T12:37:54;16.83;;;10.10;;
4885;SDS011;2457;51.788;6.136;2023-06-22T12:40:21;15.13;;;10.20;;
4885;SDS011;2457;51.788;6.136;2023-06-22T12:42:48;17.67;;;9.80;;
4885;SDS011;2457;51.788;6.136;2023-06-22T12:45:16;15.20;;;9.87;;
4885;SDS011;2457;51.788;6.136;2023-06-22T12:47:43;15.30;;;8.13;;
4885;SDS011;2457;51.788;6.136;2023-06-22T12:50:10;14.70;;;9.70;;
4885;SDS011;2457;51.788;6.136;2023-06-22T12:52:39;14.03;;;8.40;;
4885;SDS011;2457;51.788;6.136;2023-06-22T12:55:07;15.03;;;9.63;;
4885;SDS011;2457;51.788;6.136;2023-06-22T12:57:34;17.93;;;9.27;;
4885;SDS011;2457;51.788;6.136;2023-06-22T13:00:02;16.17;;;9.30;;
4885;SDS011;2457;51.788;6.136;2023-06-22T13:02:30;16.90;;;10.20;;
4885;SDS011;2457;51.788;6.136;2023-06-22T13:04:58;15.90;;;8.23;;
4885;SDS011;2457;51.788;6.136;2023-06-22T13:07:25;14.83;;;10.47;;
4885;SDS011;2457;51.788;6.136;2023-06-22T13:09:52;16.80;;;9.10;;
4885;SDS011;2457;51.788;6.136;2023-06-22T13:12:20;14.60;;;8.87;;
4885;SDS011;2457;51.788;6.136;2023-06-22T13:14:47;13.77;;;8.47;;
4885;SDS011;2457;51.788;6.136;2023-06-22T13:17:15;14.73;;;10.10;;
4885;SDS011;2457;51.788;6.136;2023-06-22T13:19:42;13.10;;;8.03;;
4885;SDS011;2457;51.788;6.136;2023-06-22T13:22:33;14.20;;;8.63;;
4885;SDS011;2457;51.788;6.136;2023-06-22T13:24:57;17.07;;;8.90;;
4885;SDS011;2457;51.788;6.136;2023-06-22T13:27:24;13.77;;;8.63;;
4885;SDS011;2457;51.788;6.136;2023-06-22T13:29:52;16.10;;;9.53;;
4885;SDS011;2457;51.788;6.136;2023-06-22T13:32:19;14.37;;;8.43;;
4885;SDS011;2457;51.788;6.136;2023-06-22T13:34:47;13.93;;;8.00;;
4885;SDS011;2457;51.788;6.136;2023-06-22T13:37:14;14.07;;;8.70;;
4885;SDS011;2457;51.788;6.136;2023-06-22T13:39:41;16.93;;;8.77;;
4885;SDS011;2457;51.788;6.136;2023-06-22T13:42:08;14.17;;;8.83;;
4885;SDS011;2457;51.788;6.136;2023-06-22T13:44:36;13.70;;;8.33;;
4885;SDS011;2457;51.788;6.136;2023-06-22T13:47:04;16.57;;;8.80;;
4885;SDS011;2457;51.788;6.136;2023-06-22T13:49:31;16.10;;;9.50;;
4885;SDS011;2457;51.788;6.136;2023-06-22T13:51:59;14.83;;;8.43;;
4885;SDS011;2457;51.788;6.136;2023-06-22T13:54:26;15.37;;;8.90;;
4885;SDS011;2457;51.788;6.136;2023-06-22T13:56:53;17.43;;;9.50;;
4885;SDS011;2457;51.788;6.136;2023-06-22T13:59:21;16.60;;;8.47;;
4885;SDS011;2457;51.788;6.136;2023-06-22T14:01:48;14.00;;;9.10;;
4885;SDS011;2457;51.788;6.136;2023-06-22T14:04:16;16.73;;;9.27;;
4885;SDS011;2457;51.788;6.136;2023-06-22T14:06:43;12.83;;;8.20;;
4885;SDS011;2457;51.788;6.136;2023-06-22T14:09:10;16.50;;;8.77;;
4885;SDS011;2457;51.788;6.136;2023-06-22T14:11:38;17.40;;;10.40;;
4885;SDS011;2457;51.788;6.136;2023-06-22T14:14:05;15.97;;;9.87;;
4885;SDS011;2457;51.788;6.136;2023-06-22T14:16:32;18.60;;;9.63;;
4885;SDS011;2457;51.788;6.136;2023-06-22T14:18:59;15.17;;;8.97;;
4885;SDS011;2457;51.788;6.136;2023-06-22T14:21:27;13.90;;;10.03;;
4885;SDS011;2457;51.788;6.136;2023-06-22T14:23:54;16.50;;;9.43;;
4885;SDS011;2457;51.788;6.136;2023-06-22T14:26:21;15.07;;;9.77;;
4885;SDS011;2457;51.788;6.136;2023-06-22T14:28:49;15.00;;;9.70;;
4885;SDS011;2457;51.788;6.136;2023-06-22T14:31:19;13.47;;;9.47;;
4885;SDS011;2457;51.788;6.136;2023-06-22T14:33:47;15.50;;;10.50;;
4885;SDS011;2457;51.788;6.136;2023-06-22T14:36:15;14.77;;;9.33;;
4885;SDS011;2457;51.788;6.136;2023-06-22T14:38:42;17.37;;;10.37;;
4885;SDS011;2457;51.788;6.136;2023-06-22T14:41:10;15.53;;;10.23;;
4885;SDS011;2457;51.788;6.136;2023-06-22T14:43:37;19.50;;;10.97;;
4885;SDS011;2457;51.788;6.136;2023-06-22T14:46:04;17.13;;;9.27;;
4885;SDS011;2457;51.788;6.136;2023-06-22T14:48:31;16.10;;;9.50;;
4885;SDS011;2457;51.788;6.136;2023-06-22T14:50:59;16.20;;;10.27;;
4885;SDS011;2457;51.788;6.136;2023-06-22T14:53:26;19.10;;;11.10;;
4885;SDS011;2457;51.788;6.136;2023-06-22T14:55:54;20.00;;;10.43;;
4885;SDS011;2457;51.788;6.136;2023-06-22T14:58:21;16.20;;;11.27;;
4885;SDS011;2457;51.788;6.136;2023-06-22T15:00:48;17.43;;;10.63;;
4885;SDS011;2457;51.788;6.136;2023-06-22T15:03:16;18.83;;;10.90;;
4885;SDS011;2457;51.788;6.136;2023-06-22T15:05:45;16.23;;;10.40;;
4885;SDS011;2457;51.788;6.136;2023-06-22T15:08:12;16.93;;;9.97;;